< < Back
Terminal Aerodrome Forecast


Current Version              Previous Versions:   1  2  3  4  5  6  7  8  9  

Terminal Aerodrome Forecast

709
FTUS42 KTAE 171100
TAFVLD
TAF
KVLD 171120Z 1712/1812 00000KT P6SM SKC
     FM171600 36004KT P6SM SCT250
     FM180200 00000KT P6SM SCT250=

Latest METAR

038
SAUS70 KWBC 180800 RRL
MTRVLD
METAR KVLD 180753Z AUTO 00000KT 4SM BR CLR 04/03 A3015 RMK AO2 SLP217
T00390033 $


USA.gov is the U.S. government's official web portal to all federal, state and local government web resources and services.